createdAt,value
2023-03-16T00:00:27.148Z,77.87
2023-03-16T00:02:57.463Z,77.55
2023-03-16T00:05:26.702Z,77.63
2023-03-16T00:07:55.340Z,78.24
2023-03-16T00:10:27.663Z,78.58
2023-03-16T00:12:56.801Z,78.46
2023-03-16T00:15:25.518Z,78.48
2023-03-16T00:17:55.309Z,77.86
2023-03-16T00:20:25.741Z,77.96
2023-03-16T00:22:54.690Z,77.97
2023-03-16T00:25:24.395Z,77.60
2023-03-16T00:27:53.229Z,78.61
2023-03-16T00:30:22.968Z,79.21
2023-03-16T00:32:53.969Z,78.09
2023-03-16T00:35:24.096Z,78.29
2023-03-16T00:37:52.866Z,78.85
2023-03-16T00:40:22.059Z,78.66
2023-03-16T00:42:50.680Z,79.85
2023-03-16T00:45:19.476Z,79.93
2023-03-16T00:47:48.236Z,78.81
2023-03-16T00:50:17.274Z,78.78
2023-03-16T00:52:47.465Z,79.02
2023-03-16T00:55:16.232Z,78.57
2023-03-16T00:57:45.001Z,78.11
2023-03-16T01:00:17.036Z,78.15
2023-03-16T01:02:46.587Z,79.25
2023-03-16T01:05:16.475Z,78.85
2023-03-16T01:07:48.325Z,79.50
2023-03-16T01:10:18.125Z,79.78
2023-03-16T01:12:47.558Z,79.38
2023-03-16T01:15:16.415Z,78.89
2023-03-16T01:17:45.193Z,79.17
2023-03-16T01:20:19.369Z,78.72
2023-03-16T01:22:49.526Z,78.36
2023-03-16T01:25:18.610Z,78.44
2023-03-16T01:27:47.742Z,78.99
2023-03-16T01:30:16.913Z,78.29
2023-03-16T01:32:45.950Z,79.17
2023-03-16T01:35:15.848Z,78.88
2023-03-16T01:37:44.843Z,78.69
2023-03-16T01:40:18.570Z,78.52
2023-03-16T01:42:49.491Z,78.85
2023-03-16T01:46:18.328Z,78.45
2023-03-16T01:49:05.649Z,79.23
2023-03-16T01:51:43.848Z,78.65
2023-03-16T01:54:24.969Z,78.49
2023-03-16T01:57:04.727Z,78.90
2023-03-16T01:59:39.520Z,78.41
2023-03-16T02:02:11.164Z,78.38
2023-03-16T02:04:53.501Z,78.40
2023-03-16T02:07:29.712Z,78.62
2023-03-16T02:10:02.667Z,78.11
2023-03-16T02:12:33.311Z,78.16
2023-03-16T02:15:06.102Z,77.91
2023-03-16T02:17:37.899Z,77.94
2023-03-16T02:20:30.018Z,77.62
2023-03-16T02:23:00.720Z,78.15
2023-03-16T02:25:41.718Z,78.40
2023-03-16T02:28:23.342Z,78.20
2023-03-16T02:30:54.708Z,77.72
2023-03-16T02:33:25.447Z,78.01
2023-03-16T02:35:54.464Z,77.65
2023-03-16T02:38:23.825Z,77.38
2023-03-16T02:41:02.725Z,78.78
2023-03-16T02:43:37.480Z,77.89
2023-03-16T02:46:17.201Z,77.88
2023-03-16T02:48:55.754Z,78.33
2023-03-16T02:51:24.662Z,78.23
2023-03-16T02:53:53.459Z,77.91
2023-03-16T02:56:23.683Z,78.34
2023-03-16T02:58:52.570Z,77.71
2023-03-16T03:01:24.093Z,77.54
2023-03-16T03:03:52.842Z,77.36
2023-03-16T03:06:21.708Z,77.31
2023-03-16T03:08:50.497Z,78.35
2023-03-16T03:11:19.823Z,78.25
2023-03-16T03:13:49.047Z,78.43
2023-03-16T03:16:23.865Z,77.98
2023-03-16T03:18:54.340Z,77.63
2023-03-16T03:21:24.931Z,77.54
2023-03-16T03:23:54.095Z,77.41
2023-03-16T03:26:23.096Z,77.63
2023-03-16T03:28:52.658Z,77.68
2023-03-16T03:31:24.325Z,77.19
2023-03-16T03:33:54.055Z,77.06
2023-03-16T03:36:24.151Z,78.35
2023-03-16T03:38:54.836Z,77.68
2023-03-16T03:41:24.218Z,77.59
2023-03-16T03:43:54.941Z,78.64
2023-03-16T03:46:26.006Z,78.75
2023-03-16T03:48:54.880Z,78.00
2023-03-16T03:51:24.110Z,77.68
2023-03-16T03:54:06.075Z,77.24
2023-03-16T03:56:48.711Z,77.02
2023-03-16T03:59:18.712Z,78.16
2023-03-16T04:02:18.432Z,78.23
2023-03-16T04:04:52.707Z,77.95
2023-03-16T04:07:21.644Z,77.60
2023-03-16T04:09:53.121Z,77.56
2023-03-16T04:12:30.811Z,77.55
2023-03-16T04:14:59.957Z,77.37
2023-03-16T04:17:36.266Z,78.39
2023-03-16T04:20:16.142Z,78.43
2023-03-16T04:22:48.476Z,78.18
2023-03-16T04:25:19.501Z,78.68
2023-03-16T04:27:50.026Z,77.87
2023-03-16T04:30:20.117Z,77.61
2023-03-16T04:32:56.417Z,78.34
2023-03-16T04:35:25.818Z,78.06
2023-03-16T04:37:58.233Z,79.31
2023-03-16T04:40:35.702Z,79.22
2023-03-16T04:43:11.243Z,79.29
2023-03-16T04:45:40.155Z,79.55
2023-03-16T04:48:10.749Z,79.16
2023-03-16T04:50:41.029Z,78.37
2023-03-16T04:53:10.219Z,78.25
2023-03-16T04:55:39.116Z,78.71
2023-03-16T04:58:09.136Z,79.26
2023-03-16T05:00:40.960Z,78.64
2023-03-16T05:03:21.762Z,78.50
2023-03-16T05:05:52.154Z,78.52
2023-03-16T05:08:21.301Z,77.72
2023-03-16T05:10:52.206Z,78.18
2023-03-16T05:13:21.756Z,78.67
2023-03-16T05:15:54.105Z,78.29
2023-03-16T05:18:36.309Z,78.14
2023-03-16T05:21:06.408Z,77.88
2023-03-16T05:23:48.884Z,77.67
2023-03-16T05:26:18.456Z,78.84
2023-03-16T05:28:47.914Z,79.05
2023-03-16T05:31:19.937Z,79.24
2023-03-16T05:34:00.213Z,78.97
2023-03-16T05:36:29.023Z,79.38
2023-03-16T05:39:03.818Z,78.58
2023-03-16T05:41:38.325Z,78.74
2023-03-16T05:44:22.943Z,79.15
2023-03-16T05:47:06.774Z,78.46
2023-03-16T05:49:41.398Z,78.73
2023-03-16T05:52:17.030Z,78.72
2023-03-16T05:54:46.703Z,78.40
2023-03-16T05:57:16.442Z,78.50
2023-03-16T05:59:49.002Z,78.67
2023-03-16T06:02:19.973Z,78.10
2023-03-16T06:04:53.741Z,78.14
2023-03-16T06:07:22.799Z,78.98
2023-03-16T06:09:55.238Z,78.66
2023-03-16T06:12:24.344Z,78.70
2023-03-16T06:14:53.199Z,78.81
2023-03-16T06:17:22.011Z,78.29
2023-03-16T06:19:52.572Z,78.24
2023-03-16T06:22:21.516Z,78.29
2023-03-16T06:24:50.416Z,79.26
2023-03-16T06:27:20.379Z,79.13
2023-03-16T06:30:08.705Z,78.87
2023-03-16T06:32:39.170Z,78.71
2023-03-16T06:35:14.637Z,78.25
2023-03-16T06:37:49.944Z,78.15
2023-03-16T06:40:37.472Z,77.94
2023-03-16T06:43:07.752Z,78.31
2023-03-16T06:45:36.602Z,78.52
2023-03-16T06:48:07.044Z,78.32
2023-03-16T06:50:37.293Z,78.29
2023-03-16T06:53:07.571Z,78.52
2023-03-16T06:55:38.283Z,78.28
2023-03-16T06:58:07.063Z,78.62
2023-03-16T07:00:35.802Z,78.65
2023-03-16T07:03:05.267Z,78.64
2023-03-16T07:05:36.489Z,78.65
2023-03-16T07:08:06.143Z,78.87
2023-03-16T07:10:35.404Z,78.87
2023-03-16T07:13:04.202Z,79.01
2023-03-16T07:15:32.931Z,79.40
2023-03-16T07:18:02.712Z,79.44
2023-03-16T07:20:33.152Z,79.66
2023-03-16T07:23:07.324Z,79.73
2023-03-16T07:25:37.377Z,80.02
2023-03-16T07:28:06.865Z,80.29
2023-03-16T07:30:45.930Z,80.39
2023-03-16T07:33:22.618Z,80.51
2023-03-16T07:35:52.076Z,80.58
2023-03-16T07:38:22.362Z,80.33
2023-03-16T07:40:53.280Z,80.35
2023-03-16T07:43:24.661Z,80.42
2023-03-16T07:45:57.237Z,80.29
2023-03-16T07:48:27.272Z,80.46
2023-03-16T07:51:01.854Z,80.41
2023-03-16T07:53:33.517Z,80.19
2023-03-16T07:56:15.888Z,80.23
2023-03-16T07:58:47.693Z,79.57
2023-03-16T08:01:17.185Z,77.56
2023-03-16T08:03:45.973Z,75.65
2023-03-16T08:06:14.696Z,74.86
2023-03-16T08:08:44.856Z,72.73
2023-03-16T08:11:23.899Z,71.40
2023-03-16T08:14:05.548Z,70.31
2023-03-16T08:17:08.565Z,67.44
2023-03-16T08:19:37.967Z,68.61
2023-03-16T08:22:09.374Z,67.68
2023-03-16T08:24:43.976Z,67.53
2023-03-16T08:27:16.196Z,68.99
2023-03-16T08:29:53.370Z,67.62
2023-03-16T08:32:24.947Z,66.11
2023-03-16T08:34:53.869Z,64.19
2023-03-16T08:37:24.180Z,63.56
2023-03-16T08:39:56.997Z,62.19
2023-03-16T08:42:25.921Z,61.94
2023-03-16T08:45:00.962Z,61.73
2023-03-16T08:47:32.893Z,60.17
2023-03-16T08:50:02.329Z,60.01
2023-03-16T08:52:31.823Z,61.22
2023-03-16T08:55:04.093Z,59.29
2023-03-16T08:57:33.911Z,60.05
2023-03-16T09:00:08.931Z,58.44
2023-03-16T09:02:38.804Z,58.98
2023-03-16T09:05:10.219Z,58.66
2023-03-16T09:07:40.121Z,55.27
2023-03-16T09:10:15.446Z,53.53
2023-03-16T09:12:45.028Z,52.83
2023-03-16T09:15:14.966Z,54.35
2023-03-16T09:17:45.274Z,53.61
2023-03-16T09:20:22.784Z,54.37
2023-03-16T09:22:56.077Z,54.22
2023-03-16T09:25:26.693Z,52.31
2023-03-16T09:27:55.785Z,51.29
2023-03-16T09:30:24.736Z,51.25
2023-03-16T09:32:53.467Z,50.31
2023-03-16T09:35:22.310Z,50.11
2023-03-16T09:38:05.605Z,49.57
2023-03-16T09:40:39.664Z,46.92
2023-03-16T09:43:49.433Z,49.03
2023-03-16T09:46:28.513Z,48.58
2023-03-16T09:48:59.304Z,46.97
2023-03-16T09:51:40.507Z,47.81
2023-03-16T09:54:24.449Z,44.70
2023-03-16T09:57:19.360Z,44.35
2023-03-16T10:00:49.177Z,45.45
2023-03-16T10:04:31.199Z,46.35
2023-03-16T10:07:20.138Z,44.88
2023-03-16T10:09:58.698Z,46.44
2023-03-16T10:12:41.525Z,46.25
2023-03-16T10:15:15.453Z,44.39
2023-03-16T10:17:51.649Z,46.33
2023-03-16T10:20:23.889Z,43.99
2023-03-16T10:22:55.739Z,44.13
2023-03-16T10:25:32.304Z,45.08
2023-03-16T10:28:02.404Z,43.07
2023-03-16T10:30:36.248Z,42.55
2023-03-16T10:33:19.768Z,43.02
2023-03-16T10:35:52.786Z,44.71
2023-03-16T10:38:33.025Z,42.64
2023-03-16T10:41:02.203Z,44.50
2023-03-16T10:43:32.308Z,46.95
2023-03-16T10:46:03.581Z,47.35
2023-03-16T10:48:34.985Z,46.48
2023-03-16T10:51:10.244Z,47.45
2023-03-16T10:53:44.689Z,45.29
2023-03-16T10:56:20.979Z,46.23
2023-03-16T10:58:51.686Z,43.77
2023-03-16T11:01:26.906Z,42.77
2023-03-16T11:03:58.289Z,44.69
2023-03-16T11:06:31.518Z,43.52
2023-03-16T11:09:08.839Z,41.79
2023-03-16T11:11:38.481Z,41.85
2023-03-16T11:14:15.438Z,39.59
2023-03-16T11:16:50.990Z,37.24
2023-03-16T11:19:24.876Z,38.83
2023-03-16T11:21:59.952Z,37.38
2023-03-16T11:24:42.350Z,37.56
2023-03-16T11:27:23.249Z,37.00
2023-03-16T11:30:16.795Z,34.56
2023-03-16T11:32:53.317Z,33.12
2023-03-16T11:35:31.013Z,35.19
2023-03-16T11:38:15.416Z,33.10
2023-03-16T11:40:58.609Z,32.57
2023-03-16T11:43:54.086Z,31.25
2023-03-16T11:46:27.487Z,33.32
2023-03-16T11:49:27.246Z,30.62
2023-03-16T11:52:06.548Z,31.15
2023-03-16T11:54:55.083Z,32.73
2023-03-16T11:57:43.778Z,33.80
2023-03-16T12:00:29.047Z,32.48
2023-03-16T12:03:28.848Z,34.62
2023-03-16T12:06:17.113Z,33.55
2023-03-16T12:09:39.440Z,32.61
2023-03-16T12:12:29.536Z,31.96
2023-03-16T12:15:21.433Z,28.67
2023-03-16T12:17:55.156Z,30.95
2023-03-16T12:20:31.724Z,30.03
2023-03-16T12:23:07.883Z,32.62
2023-03-16T12:25:42.920Z,31.89
2023-03-16T12:28:23.760Z,30.03
2023-03-16T12:31:09.408Z,29.98
2023-03-16T12:33:55.295Z,29.25
2023-03-16T12:37:15.461Z,27.57
2023-03-16T12:40:24.650Z,28.61
2023-03-16T12:43:10.803Z,30.22
2023-03-16T12:45:49.400Z,30.98
2023-03-16T12:48:29.964Z,33.17
2023-03-16T12:51:03.229Z,33.39
2023-03-16T12:53:46.044Z,32.89
2023-03-16T12:56:18.858Z,34.52
2023-03-16T12:58:50.818Z,34.42
2023-03-16T13:01:28.312Z,31.69
2023-03-16T13:04:07.448Z,33.45
2023-03-16T13:06:38.724Z,33.95
2023-03-16T13:09:09.754Z,36.20
2023-03-16T13:11:50.449Z,36.97
2023-03-16T13:14:38.346Z,37.94
2023-03-16T13:17:25.520Z,36.73
2023-03-16T13:20:06.759Z,37.23
2023-03-16T13:22:47.123Z,33.16
2023-03-16T13:25:25.667Z,34.76
2023-03-16T13:27:58.309Z,36.67
2023-03-16T13:30:32.812Z,38.02
2023-03-16T13:33:11.332Z,36.00
2023-03-16T13:35:41.164Z,36.66
2023-03-16T13:38:16.949Z,37.57
2023-03-16T13:40:54.514Z,37.91
2023-03-16T13:43:27.982Z,37.68
2023-03-16T13:45:57.676Z,39.40
2023-03-16T13:48:26.760Z,37.04
2023-03-16T13:50:58.782Z,36.72
2023-03-16T13:53:32.940Z,37.44
2023-03-16T13:56:04.442Z,37.28
2023-03-16T13:58:39.771Z,38.52
2023-03-16T14:01:26.100Z,37.04
2023-03-16T14:03:59.581Z,37.42
2023-03-16T14:06:34.293Z,36.32
2023-03-16T14:09:08.143Z,36.80
2023-03-16T14:11:38.714Z,39.09
2023-03-16T14:14:17.768Z,39.33
2023-03-16T14:16:46.605Z,38.52
2023-03-16T14:19:24.641Z,36.94
2023-03-16T14:21:53.542Z,37.22
2023-03-16T14:24:34.956Z,37.74
2023-03-16T14:27:21.937Z,41.62
2023-03-16T14:30:04.521Z,38.15
2023-03-16T14:32:35.133Z,37.54
2023-03-16T14:35:23.447Z,38.42
2023-03-16T14:37:52.913Z,37.44
2023-03-16T14:40:31.917Z,37.20
2023-03-16T14:43:06.448Z,37.62
2023-03-16T14:45:38.034Z,38.74
2023-03-16T14:48:18.270Z,38.50
2023-03-16T14:50:49.192Z,37.49
2023-03-16T14:53:18.224Z,38.69
2023-03-16T14:55:47.595Z,39.39
2023-03-16T14:58:18.552Z,40.39
2023-03-16T15:00:53.076Z,38.34
2023-03-16T15:03:30.373Z,38.00
2023-03-16T15:06:00.386Z,38.44
2023-03-16T15:08:34.532Z,39.32
2023-03-16T15:11:08.136Z,38.62
2023-03-16T15:13:59.586Z,40.38
2023-03-16T15:16:30.919Z,40.86
2023-03-16T15:19:03.296Z,40.44
2023-03-16T15:22:25.282Z,40.66
2023-03-16T15:24:58.229Z,41.79
2023-03-16T15:27:35.046Z,42.73
2023-03-16T15:30:31.337Z,44.30
2023-03-16T15:33:07.496Z,44.37
2023-03-16T15:35:37.793Z,45.57
2023-03-16T15:38:15.195Z,44.93
2023-03-16T15:40:47.961Z,46.19
2023-03-16T15:43:20.730Z,44.92
2023-03-16T15:45:52.376Z,43.78
2023-03-16T15:48:24.767Z,45.21
2023-03-16T15:50:57.412Z,45.45
2023-03-16T15:53:31.877Z,46.68
2023-03-16T15:56:05.731Z,46.50
2023-03-16T15:58:38.136Z,46.76
2023-03-16T16:01:09.026Z,47.92
2023-03-16T16:03:39.176Z,49.50
2023-03-16T16:06:12.336Z,49.54
2023-03-16T16:11:34.908Z,49.89
2023-03-16T16:14:11.731Z,48.88
2023-03-16T16:16:48.401Z,50.18
2023-03-16T16:19:19.845Z,50.50
2023-03-16T16:21:53.739Z,52.08
2023-03-16T16:24:25.395Z,52.01
2023-03-16T16:26:57.983Z,52.64
2023-03-16T16:29:35.588Z,52.42
2023-03-16T16:32:25.157Z,53.32
2023-03-16T16:35:04.274Z,52.78
2023-03-16T16:37:38.601Z,53.60
2023-03-16T16:40:21.342Z,54.21
2023-03-16T16:42:55.202Z,53.83
2023-03-16T16:45:32.742Z,54.47
2023-03-16T16:48:08.190Z,54.66
2023-03-16T16:50:39.857Z,54.77
2023-03-16T16:53:31.908Z,55.50
2023-03-16T16:56:03.035Z,54.93
2023-03-16T16:58:35.626Z,55.19
2023-03-16T17:01:12.807Z,55.76
2023-03-16T17:03:53.146Z,56.47
2023-03-16T17:06:36.839Z,55.53
2023-03-16T17:09:10.831Z,55.95
2023-03-16T17:11:45.430Z,56.91
2023-03-16T17:14:21.987Z,57.53
2023-03-16T17:17:17.988Z,57.25
2023-03-16T17:19:48.692Z,58.37
2023-03-16T17:22:25.489Z,58.71
2023-03-16T17:24:55.179Z,58.61
2023-03-16T17:27:33.140Z,59.30
2023-03-16T17:30:04.583Z,59.69
2023-03-16T17:32:52.215Z,60.00
2023-03-16T17:35:22.750Z,59.30
2023-03-16T17:37:51.745Z,59.79
2023-03-16T17:40:23.745Z,60.08
2023-03-16T17:42:55.432Z,59.68
2023-03-16T17:45:28.768Z,60.70
2023-03-16T17:48:00.685Z,60.79
2023-03-16T17:50:31.484Z,60.80
2023-03-16T17:53:03.179Z,60.93
2023-03-16T17:55:32.355Z,60.66
2023-03-16T17:58:02.301Z,60.23
2023-03-16T18:00:34.309Z,60.95
2023-03-16T18:03:05.799Z,62.21
2023-03-16T18:05:38.408Z,62.88
2023-03-16T18:08:17.118Z,62.54
2023-03-16T18:10:49.568Z,62.41
2023-03-16T18:13:24.169Z,62.20
2023-03-16T18:15:53.908Z,62.19
2023-03-16T18:18:26.368Z,62.24
2023-03-16T18:21:01.876Z,63.06
2023-03-16T18:23:33.600Z,63.93
2023-03-16T18:26:04.424Z,63.01
2023-03-16T18:28:34.454Z,62.92
2023-03-16T18:31:06.026Z,63.81
2023-03-16T18:33:39.431Z,63.99
2023-03-16T18:36:18.230Z,63.57
2023-03-16T18:38:50.653Z,63.34
2023-03-16T18:41:22.914Z,63.54
2023-03-16T18:43:53.491Z,63.95
2023-03-16T18:46:29.062Z,64.10
2023-03-16T18:49:06.337Z,63.89
2023-03-16T18:51:41.501Z,63.37
2023-03-16T18:54:24.471Z,63.79
2023-03-16T18:56:54.133Z,63.88
2023-03-16T18:59:23.386Z,64.09
2023-03-16T19:01:53.134Z,64.57
2023-03-16T19:04:26.003Z,64.59
2023-03-16T19:06:58.500Z,65.06
2023-03-16T19:09:30.476Z,64.58
2023-03-16T19:12:00.350Z,65.11
2023-03-16T19:14:34.839Z,64.12
2023-03-16T19:17:03.729Z,64.45
2023-03-16T19:19:32.478Z,64.07
2023-03-16T19:22:09.930Z,64.80
2023-03-16T19:24:49.974Z,64.09
2023-03-16T19:27:28.120Z,64.08
2023-03-16T19:30:02.577Z,64.38
2023-03-16T19:32:41.784Z,64.21
2023-03-16T19:35:17.363Z,64.55
2023-03-16T19:38:55.338Z,64.71
2023-03-16T19:41:30.970Z,64.19
2023-03-16T19:44:10.114Z,63.16
2023-03-16T19:51:14.686Z,64.16
2023-03-16T19:53:45.774Z,63.91
2023-03-16T19:56:17.100Z,64.14
2023-03-16T19:58:53.890Z,64.38
2023-03-16T20:01:26.701Z,64.59
2023-03-16T20:03:55.478Z,64.75
2023-03-16T20:06:25.658Z,64.92
2023-03-16T20:08:55.961Z,64.67
2023-03-16T20:11:31.551Z,65.20
2023-03-16T20:14:03.598Z,65.00
2023-03-16T20:16:36.044Z,65.62
2023-03-16T20:19:14.081Z,65.78
2023-03-16T20:21:43.400Z,65.98
2023-03-16T20:24:19.945Z,66.40
2023-03-16T20:26:51.649Z,66.29
2023-03-16T20:29:29.796Z,66.29
2023-03-16T20:31:59.112Z,66.35
2023-03-16T20:34:32.247Z,66.09
2023-03-16T20:37:01.978Z,65.93
2023-03-16T20:39:32.485Z,66.43
2023-03-16T20:42:01.474Z,66.18
2023-03-16T20:44:32.327Z,66.29
2023-03-16T20:47:02.551Z,66.51
2023-03-16T20:49:34.164Z,66.37
2023-03-16T20:52:04.010Z,67.47
2023-03-16T20:54:34.553Z,67.20
2023-03-16T20:57:03.705Z,67.86
2023-03-16T20:59:33.159Z,67.14
2023-03-16T21:02:03.278Z,67.11
2023-03-16T21:04:31.975Z,67.05
2023-03-16T21:07:00.616Z,66.73
2023-03-16T21:09:31.927Z,67.48
2023-03-16T21:12:02.144Z,67.50
2023-03-16T21:14:31.599Z,67.49
2023-03-16T21:17:00.665Z,68.09
2023-03-16T21:19:30.114Z,67.62
2023-03-16T21:21:58.738Z,68.28
2023-03-16T21:24:27.362Z,68.12
2023-03-16T21:26:56.062Z,67.80
2023-03-16T21:29:26.392Z,68.70
2023-03-16T21:31:55.435Z,69.35
2023-03-16T21:34:30.474Z,68.69
2023-03-16T21:36:59.428Z,69.12
2023-03-16T21:39:31.263Z,68.70
2023-03-16T21:41:59.957Z,68.30
2023-03-16T21:44:30.036Z,68.42
2023-03-16T21:46:58.827Z,68.87
2023-03-16T21:49:27.590Z,68.42
2023-03-16T21:51:56.776Z,68.66
2023-03-16T21:54:25.518Z,68.38
2023-03-16T21:56:54.221Z,68.56
2023-03-16T21:59:23.907Z,68.55
2023-03-16T22:02:06.908Z,68.17
2023-03-16T22:04:35.693Z,68.58
2023-03-16T22:07:04.354Z,69.43
2023-03-16T22:09:33.278Z,68.72
2023-03-16T22:12:01.908Z,68.31
2023-03-16T22:14:30.525Z,68.50
2023-03-16T22:17:00.681Z,68.45
2023-03-16T22:19:29.674Z,68.96
2023-03-16T22:21:58.798Z,68.51
2023-03-16T22:24:31.407Z,68.72
2023-03-16T22:27:01.000Z,68.36
2023-03-16T22:29:31.773Z,68.64
2023-03-16T22:32:08.612Z,68.44
2023-03-16T22:34:45.249Z,68.54
2023-03-16T22:37:19.553Z,68.73
2023-03-16T22:39:49.669Z,69.24
2023-03-16T22:42:29.231Z,68.26
2023-03-16T22:44:58.307Z,67.80
2023-03-16T22:47:32.362Z,67.92
2023-03-16T22:50:02.003Z,68.10
2023-03-16T22:52:36.239Z,67.14
2023-03-16T22:55:08.832Z,67.28
2023-03-16T22:57:37.521Z,67.04
2023-03-16T23:00:11.268Z,67.64
2023-03-16T23:02:42.823Z,67.53
2023-03-16T23:05:24.414Z,67.56
2023-03-16T23:07:54.412Z,66.81
2023-03-16T23:10:28.413Z,66.14
2023-03-16T23:13:00.699Z,66.09
2023-03-16T23:15:31.979Z,65.85
2023-03-16T23:18:02.318Z,64.93
2023-03-16T23:20:33.608Z,64.58
2023-03-16T23:23:02.348Z,63.97
2023-03-16T23:25:31.262Z,64.20
2023-03-16T23:28:02.803Z,64.56
2023-03-16T23:30:32.256Z,64.74
2023-03-16T23:33:02.845Z,64.48
2023-03-16T23:35:33.116Z,64.26
2023-03-16T23:38:02.207Z,64.14
2023-03-16T23:40:32.036Z,63.95
2023-03-16T23:43:02.235Z,63.84
2023-03-16T23:45:38.749Z,64.76
2023-03-16T23:48:16.896Z,64.03
2023-03-16T23:50:48.870Z,63.77
2023-03-16T23:53:19.968Z,63.34
2023-03-16T23:55:49.548Z,63.20
2023-03-16T23:58:18.590Z,63.16
